CAL063 RCTP-LOWW
Flight info
| Callsign | CAL063 |
|---|---|
| Flight time | N/A |
| Altitude | 34000 |
| Route | CHALI1A CHALI T3 MKG A1 KADLO T1 KAPLI/N0500F360 DCT ALLEY V10 SIKOU/K0926S1100 R339 WUY R474 TEBAK/K0926F360 R474 NOB W21 BQ B214 LADON/N0501F360 B214 AKSAG B465 APAGO/N0502F380 B465 CEA R460 LKN M890 SULOM A466 DI N644 LEMOD/N0499F400 A909 RODAR N644 ADEKI DCT BADIR DCT LAGAS DCT FOQUS DCT SARPI UM10 GOKPA UL746 ODERO L746 LUGEB DCT BUDOP DCT BALUX DCT TORNO DCT NATEX NATEX2W |
| Aircraft | A359/H-SDE2E3GHIJ3J4J5LM1ORWXY/LB1D1 |
Departure
| Time | N/A |
|---|---|
| Airport | Taiwan Taoyuan International Airport (RCTP) |
Arrival
| Time | 2026-05-01 07:37 |
|---|---|
| Airport | Vienna International Airport (LOWW) |
| Time | Latitude | Longitude | Altitude | Speed | Heading |
|---|---|---|---|---|---|
| 2026-05-01 07:23 | 47.62690 | 18.07957 | 21015 ft | 456 kts | 294° |
| 2026-05-01 07:23 | 47.64538 | 17.99144 | 19876 ft | 445 kts | 293° |
| 2026-05-01 07:24 | 47.65450 | 17.94779 | 19319 ft | 440 kts | 293° |
| 2026-05-01 07:24 | 47.66349 | 17.90468 | 18771 ft | 435 kts | 292° |
| 2026-05-01 07:24 | 47.67224 | 17.86265 | 18144 ft | 429 kts | 292° |
| 2026-05-01 07:24 | 47.68095 | 17.82068 | 17619 ft | 423 kts | 292° |
| 2026-05-01 07:25 | 47.68950 | 17.77937 | 17087 ft | 416 kts | 292° |
| 2026-05-01 07:25 | 47.70578 | 17.70059 | 16103 ft | 404 kts | 292° |
| 2026-05-01 07:25 | 47.73785 | 17.54450 | 14113 ft | 384 kts | 292° |
| 2026-05-01 07:25 | 47.73948 | 17.38954 | 12218 ft | 371 kts | 267° |
| 2026-05-01 07:26 | 47.72875 | 17.24315 | 11041 ft | 331 kts | 267° |
| 2026-05-01 07:26 | 47.71953 | 17.11625 | 10196 ft | 300 kts | 267° |
| 2026-05-01 07:26 | 47.71258 | 16.99185 | 8843 ft | 300 kts | 271° |
| 2026-05-01 07:26 | 47.70798 | 16.86954 | 7500 ft | 295 kts | 260° |
| 2026-05-01 07:27 | 47.70285 | 16.83907 | 7199 ft | 294 kts | 257° |
| 2026-05-01 07:27 | 47.69788 | 16.80989 | 7010 ft | 285 kts | 263° |
| 2026-05-01 07:27 | 47.69867 | 16.78200 | 6843 ft | 267 kts | 290° |
| 2026-05-01 07:27 | 47.70723 | 16.75894 | 6635 ft | 248 kts | 317° |
| 2026-05-01 07:28 | 47.72073 | 16.74446 | 6317 ft | 236 kts | 341° |
| 2026-05-01 07:28 | 47.73610 | 16.73686 | 6034 ft | 229 kts | 349° |
| 2026-05-01 07:28 | 47.75130 | 16.73084 | 5936 ft | 226 kts | 349° |
| 2026-05-01 07:28 | 47.76644 | 16.72485 | 5671 ft | 225 kts | 348° |
| 2026-05-01 07:29 | 47.78135 | 16.71885 | 5472 ft | 217 kts | 348° |
| 2026-05-01 07:29 | 47.79563 | 16.71302 | 5317 ft | 209 kts | 348° |
| 2026-05-01 07:29 | 47.80951 | 16.70733 | 5079 ft | 206 kts | 348° |
| 2026-05-01 07:29 | 47.82310 | 16.70173 | 4767 ft | 204 kts | 347° |
| 2026-05-01 07:30 | 47.83665 | 16.69614 | 4468 ft | 201 kts | 347° |
| 2026-05-01 07:30 | 47.84996 | 16.69063 | 4270 ft | 195 kts | 347° |
| 2026-05-01 07:30 | 47.86306 | 16.68543 | 4177 ft | 196 kts | 349° |
| 2026-05-01 07:30 | 47.87628 | 16.68053 | 4098 ft | 193 kts | 348° |
| 2026-05-01 07:31 | 47.88865 | 16.67542 | 4020 ft | 178 kts | 347° |
| 2026-05-01 07:31 | 47.92377 | 16.66075 | 3800 ft | 175 kts | 346° |
| 2026-05-01 07:32 | 47.94721 | 16.65096 | 3472 ft | 174 kts | 347° |
| 2026-05-01 07:32 | 47.95860 | 16.64616 | 3299 ft | 163 kts | 346° |
| 2026-05-01 07:33 | 47.97925 | 16.63747 | 2929 ft | 150 kts | 347° |
| 2026-05-01 07:33 | 47.98932 | 16.63322 | 2722 ft | 150 kts | 346° |
| 2026-05-01 07:33 | 48.00835 | 16.62524 | 2336 ft | 139 kts | 346° |
| 2026-05-01 07:34 | 48.01748 | 16.62137 | 2140 ft | 133 kts | 347° |
| 2026-05-01 07:34 | 48.03450 | 16.61420 | 1781 ft | 125 kts | 346° |
| 2026-05-01 07:34 | 48.04288 | 16.61064 | 1608 ft | 126 kts | 347° |
| 2026-05-01 07:35 | 48.05139 | 16.60708 | 1450 ft | 128 kts | 346° |
| 2026-05-01 07:35 | 48.05991 | 16.60364 | 1223 ft | 125 kts | 346° |
| 2026-05-01 07:35 | 48.06829 | 16.60004 | 1073 ft | 127 kts | 345° |
| 2026-05-01 07:35 | 48.07697 | 16.59646 | 897 ft | 131 kts | 344° |
| 2026-05-01 07:36 | 48.08575 | 16.59261 | 700 ft | 131 kts | 344° |
| 2026-05-01 07:36 | 48.09432 | 16.58898 | 631 ft | 125 kts | 344° |
| 2026-05-01 07:36 | 48.10158 | 16.58588 | 628 ft | 89 kts | 345° |
| 2026-05-01 07:36 | 48.10614 | 16.58397 | 630 ft | 56 kts | 343° |
| 2026-05-01 07:37 | 48.11027 | 16.58108 | 630 ft | 24 kts | 303° |
| 2026-05-01 07:37 | 48.11102 | 16.57883 | 630 ft | 25 kts | 296° |
| 2026-05-01 07:37 | 48.11166 | 16.57688 | 627 ft | 20 kts | 296° |
| 2026-05-01 07:38 | 48.11231 | 16.57489 | 626 ft | 22 kts | 296° |
| 2026-05-01 07:38 | 48.11301 | 16.57275 | 627 ft | 24 kts | 296° |
| 2026-05-01 07:38 | 48.11440 | 16.56848 | 626 ft | 22 kts | 296° |
| 2026-05-01 07:39 | 48.11508 | 16.56637 | 630 ft | 23 kts | 296° |
| 2026-05-01 07:39 | 48.11582 | 16.56411 | 628 ft | 25 kts | 296° |
| 2026-05-01 07:39 | 48.11722 | 16.55982 | 627 ft | 17 kts | 296° |
| 2026-05-01 07:40 | 48.11759 | 16.55868 | 629 ft | 8 kts | 296° |
| 2026-05-01 07:40 | 48.11790 | 16.55828 | 628 ft | 4 kts | 2° |
| 2026-05-01 07:40 | 48.11826 | 16.55852 | 630 ft | 7 kts | 24° |
| 2026-05-01 07:40 | 48.11875 | 16.55887 | 629 ft | 6 kts | 25° |
| 2026-05-01 07:41 | 48.11884 | 16.55915 | 630 ft | 3 kts | 84° |
| 2026-05-01 07:41 | 48.11875 | 16.55954 | 630 ft | 4 kts | 127° |
| 2026-05-01 07:41 | 48.11853 | 16.55998 | 627 ft | 0 kts | 125° |
| 2026-05-01 07:42 | 48.11852 | 16.55999 | 627 ft | 0 kts | 125° |